sensor_id;sensor_type;location;lat;lon;timestamp;pressure;altitude;pressure_sealevel;temperature;humidity
33191;BME280;19554;42.652;23.364;2023-06-19T00:00:50;94681.69;;;19.12;63.00
33191;BME280;19554;42.652;23.364;2023-06-19T00:03:15;94701.75;;;19.24;63.26
33191;BME280;19554;42.652;23.364;2023-06-19T00:05:41;94694.75;;;19.10;62.50
33191;BME280;19554;42.652;23.364;2023-06-19T00:08:06;94704.47;;;19.11;62.92
33191;BME280;19554;42.652;23.364;2023-06-19T00:10:32;94682.81;;;18.99;63.52
33191;BME280;19554;42.652;23.364;2023-06-19T00:12:58;94664.34;;;18.77;63.22
33191;BME280;19554;42.652;23.364;2023-06-19T00:15:23;94700.41;;;19.05;63.49
33191;BME280;19554;42.652;23.364;2023-06-19T00:17:48;94693.66;;;18.99;63.21
33191;BME280;19554;42.652;23.364;2023-06-19T00:20:14;94696.16;;;19.04;63.03
33191;BME280;19554;42.652;23.364;2023-06-19T00:22:40;94652.84;;;18.80;63.68
33191;BME280;19554;42.652;23.364;2023-06-19T00:25:06;94678.66;;;18.89;63.88
33191;BME280;19554;42.652;23.364;2023-06-19T00:27:32;94694.53;;;19.03;62.75
33191;BME280;19554;42.652;23.364;2023-06-19T00:29:57;94690.72;;;19.04;62.78
33191;BME280;19554;42.652;23.364;2023-06-19T00:32:28;94690.72;;;19.04;62.95
33191;BME280;19554;42.652;23.364;2023-06-19T00:34:53;94670.66;;;18.93;62.98
33191;BME280;19554;42.652;23.364;2023-06-19T00:37:19;94676.97;;;19.09;62.92
33191;BME280;19554;42.652;23.364;2023-06-19T00:39:44;94672.22;;;19.06;62.70
33191;BME280;19554;42.652;23.364;2023-06-19T00:42:10;94682.03;;;19.11;62.42
33191;BME280;19554;42.652;23.364;2023-06-19T00:44:36;94679.44;;;19.02;62.87
33191;BME280;19554;42.652;23.364;2023-06-19T00:47:02;94681.03;;;19.03;62.40
33191;BME280;19554;42.652;23.364;2023-06-19T00:49:29;94677.66;;;18.94;62.67
33191;BME280;19554;42.652;23.364;2023-06-19T00:51:55;94682.72;;;18.96;62.36
33191;BME280;19554;42.652;23.364;2023-06-19T00:54:21;94675.84;;;18.98;62.90
33191;BME280;19554;42.652;23.364;2023-06-19T00:56:46;94676.63;;;18.99;62.82
33191;BME280;19554;42.652;23.364;2023-06-19T00:59:17;94657.47;;;18.91;62.54
33191;BME280;19554;42.652;23.364;2023-06-19T01:01:43;94602.59;;;18.54;62.58
33191;BME280;19554;42.652;23.364;2023-06-19T01:04:09;94641.81;;;18.85;62.40
33191;BME280;19554;42.652;23.364;2023-06-19T01:06:43;94659.94;;;18.97;62.34
33191;BME280;19554;42.652;23.364;2023-06-19T01:09:14;94620.28;;;18.76;62.58
33191;BME280;19554;42.652;23.364;2023-06-19T01:11:48;94662.09;;;19.03;62.65
33191;BME280;19554;42.652;23.364;2023-06-19T01:14:18;94657.56;;;19.07;61.92
33191;BME280;19554;42.652;23.364;2023-06-19T01:16:45;94662.31;;;19.10;61.96
33191;BME280;19554;42.652;23.364;2023-06-19T01:19:15;94650.59;;;19.06;61.82
33191;BME280;19554;42.652;23.364;2023-06-19T01:21:43;94659.50;;;18.94;62.19
33191;BME280;19554;42.652;23.364;2023-06-19T01:24:08;94658.47;;;18.87;62.46
33191;BME280;19554;42.652;23.364;2023-06-19T01:26:33;94659.41;;;18.79;62.82
33191;BME280;19554;42.652;23.364;2023-06-19T01:28:59;94650.91;;;18.68;63.27
33191;BME280;19554;42.652;23.364;2023-06-19T01:31:31;94657.88;;;18.69;63.55
33191;BME280;19554;42.652;23.364;2023-06-19T01:34:00;94659.81;;;18.68;63.80
33191;BME280;19554;42.652;23.364;2023-06-19T01:36:26;94663.84;;;18.62;63.97
33191;BME280;19554;42.652;23.364;2023-06-19T01:38:55;94673.66;;;18.55;64.27
33191;BME280;19554;42.652;23.364;2023-06-19T01:41:22;94670.47;;;18.40;64.53
33191;BME280;19554;42.652;23.364;2023-06-19T01:43:49;94661.78;;;18.22;64.98
33191;BME280;19554;42.652;23.364;2023-06-19T01:46:14;94680.22;;;18.20;65.00
33191;BME280;19554;42.652;23.364;2023-06-19T01:48:40;94679.75;;;18.06;65.16
33191;BME280;19554;42.652;23.364;2023-06-19T01:51:06;94690.53;;;18.06;65.68
33191;BME280;19554;42.652;23.364;2023-06-19T01:53:31;94673.44;;;18.02;66.18
33191;BME280;19554;42.652;23.364;2023-06-19T01:55:58;94679.81;;;17.97;65.84
33191;BME280;19554;42.652;23.364;2023-06-19T01:58:23;94677.47;;;17.96;66.37
33191;BME280;19554;42.652;23.364;2023-06-19T02:00:49;94648.03;;;17.82;68.26
33191;BME280;19554;42.652;23.364;2023-06-19T02:03:14;94658.97;;;17.86;68.43
33191;BME280;19554;42.652;23.364;2023-06-19T02:05:40;94663.03;;;17.92;66.75
33191;BME280;19554;42.652;23.364;2023-06-19T02:08:05;94645.25;;;17.91;66.66
33191;BME280;19554;42.652;23.364;2023-06-19T02:10:31;94609.84;;;17.71;66.62
33191;BME280;19554;42.652;23.364;2023-06-19T02:12:57;94690.63;;;18.31;66.97
33191;BME280;19554;42.652;23.364;2023-06-19T02:15:22;94690.38;;;18.36;66.57
33191;BME280;19554;42.652;23.364;2023-06-19T02:17:48;94688.81;;;18.35;66.67
33191;BME280;19554;42.652;23.364;2023-06-19T02:20:14;94682.97;;;18.33;66.56
33191;BME280;19554;42.652;23.364;2023-06-19T02:22:40;94691.31;;;18.40;66.00
33191;BME280;19554;42.652;23.364;2023-06-19T02:25:06;94678.78;;;18.23;66.44
33191;BME280;19554;42.652;23.364;2023-06-19T02:27:32;94694.69;;;18.37;66.70
33191;BME280;19554;42.652;23.364;2023-06-19T02:29:57;94682.03;;;18.29;66.47
33191;BME280;19554;42.652;23.364;2023-06-19T02:32:23;94697.81;;;18.39;66.41
33191;BME280;19554;42.652;23.364;2023-06-19T02:34:48;94707.72;;;18.35;66.60
33191;BME280;19554;42.652;23.364;2023-06-19T02:37:13;94702.56;;;18.30;66.58
33191;BME280;19554;42.652;23.364;2023-06-19T02:39:39;94701.19;;;18.23;66.59
33191;BME280;19554;42.652;23.364;2023-06-19T02:42:04;94708.28;;;18.28;66.76
33191;BME280;19554;42.652;23.364;2023-06-19T02:44:30;94710.41;;;18.22;66.92
33191;BME280;19554;42.652;23.364;2023-06-19T02:46:55;94704.19;;;18.22;67.00
33191;BME280;19554;42.652;23.364;2023-06-19T02:49:21;94655.78;;;17.84;66.88
33191;BME280;19554;42.652;23.364;2023-06-19T02:51:46;94714.22;;;18.21;67.45
33191;BME280;19554;42.652;23.364;2023-06-19T02:54:11;94713.13;;;18.22;67.35
33191;BME280;19554;42.652;23.364;2023-06-19T02:56:38;94672.50;;;17.98;67.42
33191;BME280;19554;42.652;23.364;2023-06-19T02:59:03;94711.75;;;18.16;67.61
33191;BME280;19554;42.652;23.364;2023-06-19T03:01:29;94711.75;;;18.16;67.48
33191;BME280;19554;42.652;23.364;2023-06-19T03:03:55;94713.97;;;18.14;67.74
33191;BME280;19554;42.652;23.364;2023-06-19T03:06:20;94712.72;;;18.12;67.54
33191;BME280;19554;42.652;23.364;2023-06-19T03:08:46;94713.31;;;18.17;67.56
33191;BME280;19554;42.652;23.364;2023-06-19T03:11:11;94702.50;;;18.17;67.13
33191;BME280;19554;42.652;23.364;2023-06-19T03:13:57;94711.31;;;18.27;66.97
33191;BME280;19554;42.652;23.364;2023-06-19T03:16:22;94700.28;;;18.19;66.45
33191;BME280;19554;42.652;23.364;2023-06-19T03:18:48;94674.59;;;18.13;66.29
33191;BME280;19554;42.652;23.364;2023-06-19T03:21:14;94699.44;;;18.40;65.97
33191;BME280;19554;42.652;23.364;2023-06-19T03:23:40;94631.56;;;18.08;65.79
33191;BME280;19554;42.652;23.364;2023-06-19T03:26:09;94697.44;;;18.61;65.45
33191;BME280;19554;42.652;23.364;2023-06-19T03:28:35;94715.63;;;18.85;65.09
33191;BME280;19554;42.652;23.364;2023-06-19T03:31:00;94706.72;;;18.97;64.46
33191;BME280;19554;42.652;23.364;2023-06-19T03:33:26;94701.31;;;19.09;63.91
33191;BME280;19554;42.652;23.364;2023-06-19T03:35:51;94710.31;;;19.13;63.77
33191;BME280;19554;42.652;23.364;2023-06-19T03:38:17;94702.63;;;19.28;63.25
33191;BME280;19554;42.652;23.364;2023-06-19T03:40:42;94699.69;;;19.45;62.94
33191;BME280;19554;42.652;23.364;2023-06-19T03:43:07;94693.38;;;19.53;62.18
33191;BME280;19554;42.652;23.364;2023-06-19T03:45:33;94695.84;;;19.71;61.60
33191;BME280;19554;42.652;23.364;2023-06-19T03:47:58;94701.75;;;19.88;61.29
33191;BME280;19554;42.652;23.364;2023-06-19T03:50:24;94699.59;;;19.94;60.75
33191;BME280;19554;42.652;23.364;2023-06-19T03:52:50;94700.88;;;20.12;59.83
33191;BME280;19554;42.652;23.364;2023-06-19T03:55:15;94675.47;;;20.17;59.45
33191;BME280;19554;42.652;23.364;2023-06-19T03:57:40;94711.19;;;20.51;58.94
33191;BME280;19554;42.652;23.364;2023-06-19T04:00:06;94704.47;;;20.61;58.23
33191;BME280;19554;42.652;23.364;2023-06-19T04:02:33;94685.50;;;20.61;57.96
33191;BME280;19554;42.652;23.364;2023-06-19T04:04:59;94697.94;;;20.93;57.60
33191;BME280;19554;42.652;23.364;2023-06-19T04:07:24;94703.84;;;21.15;57.49
33191;BME280;19554;42.652;23.364;2023-06-19T04:09:50;94699.53;;;21.29;57.16
33191;BME280;19554;42.652;23.364;2023-06-19T04:12:15;94686.41;;;21.47;56.75
33191;BME280;19554;42.652;23.364;2023-06-19T04:14:40;94710.31;;;21.77;56.54
33191;BME280;19554;42.652;23.364;2023-06-19T04:17:06;94696.31;;;21.94;55.69
33191;BME280;19554;42.652;23.364;2023-06-19T04:19:31;94689.88;;;22.03;55.36
33191;BME280;19554;42.652;23.364;2023-06-19T04:21:56;94700.41;;;22.23;54.94
33191;BME280;19554;42.652;23.364;2023-06-19T04:24:22;94694.13;;;22.42;54.42
33191;BME280;19554;42.652;23.364;2023-06-19T04:26:47;94690.72;;;22.07;55.51
33191;BME280;19554;42.652;23.364;2023-06-19T04:29:13;94692.25;;;22.23;54.93
33191;BME280;19554;42.652;23.364;2023-06-19T04:31:43;94659.25;;;22.06;54.71
33191;BME280;19554;42.652;23.364;2023-06-19T04:34:21;94704.94;;;22.16;54.29
33191;BME280;19554;42.652;23.364;2023-06-19T04:36:47;94676.72;;;21.85;53.78
33191;BME280;19554;42.652;23.364;2023-06-19T04:39:13;94672.53;;;21.52;55.04
33191;BME280;19554;42.652;23.364;2023-06-19T04:41:38;94705.69;;;21.42;55.26
33191;BME280;19554;42.652;23.364;2023-06-19T04:44:07;94667.88;;;21.18;56.30
33191;BME280;19554;42.652;23.364;2023-06-19T04:46:33;94706.41;;;21.23;56.59
33191;BME280;19554;42.652;23.364;2023-06-19T04:48:59;94695.22;;;20.93;57.11
33191;BME280;19554;42.652;23.364;2023-06-19T04:51:24;94699.41;;;21.06;57.92
33191;BME280;19554;42.652;23.364;2023-06-19T04:53:51;94703.53;;;21.16;57.20
33191;BME280;19554;42.652;23.364;2023-06-19T04:56:17;94693.59;;;21.24;56.59
33191;BME280;19554;42.652;23.364;2023-06-19T04:58:42;94700.88;;;21.36;57.39
33191;BME280;19554;42.652;23.364;2023-06-19T05:01:14;94700.84;;;21.51;57.51
33191;BME280;19554;42.652;23.364;2023-06-19T05:03:40;94697.16;;;21.79;55.13
33191;BME280;19554;42.652;23.364;2023-06-19T05:06:06;94705.03;;;21.84;53.18
33191;BME280;19554;42.652;23.364;2023-06-19T05:08:32;94684.72;;;21.97;53.60
33191;BME280;19554;42.652;23.364;2023-06-19T05:10:57;94696.59;;;22.28;52.22
33191;BME280;19554;42.652;23.364;2023-06-19T05:13:23;94683.19;;;22.16;51.94
33191;BME280;19554;42.652;23.364;2023-06-19T05:15:49;94693.97;;;22.55;51.19
33191;BME280;19554;42.652;23.364;2023-06-19T05:18:15;94693.44;;;22.68;50.57
33191;BME280;19554;42.652;23.364;2023-06-19T05:20:41;94656.00;;;22.39;49.87
33191;BME280;19554;42.652;23.364;2023-06-19T05:23:06;94705.16;;;22.73;48.67
33191;BME280;19554;42.652;23.364;2023-06-19T05:25:33;94686.72;;;22.85;48.69
33191;BME280;19554;42.652;23.364;2023-06-19T05:27:58;94697.03;;;22.96;48.60
33191;BME280;19554;42.652;23.364;2023-06-19T05:30:24;94692.72;;;23.17;48.27
33191;BME280;19554;42.652;23.364;2023-06-19T05:32:49;94695.28;;;23.33;47.27
33191;BME280;19554;42.652;23.364;2023-06-19T05:35:14;94721.50;;;23.68;46.63
33191;BME280;19554;42.652;23.364;2023-06-19T05:37:40;94721.31;;;23.57;46.35
33191;BME280;19554;42.652;23.364;2023-06-19T05:40:08;94724.28;;;23.72;47.12
33191;BME280;19554;42.652;23.364;2023-06-19T05:42:35;94694.81;;;23.54;46.38
33191;BME280;19554;42.652;23.364;2023-06-19T05:45:00;94725.53;;;23.78;46.52
33191;BME280;19554;42.652;23.364;2023-06-19T05:47:27;94719.09;;;23.63;46.31
33191;BME280;19554;42.652;23.364;2023-06-19T05:49:54;94718.88;;;23.49;46.05
33191;BME280;19554;42.652;23.364;2023-06-19T05:52:19;94718.34;;;23.39;46.14
33191;BME280;19554;42.652;23.364;2023-06-19T05:54:46;94723.47;;;23.45;46.17
33191;BME280;19554;42.652;23.364;2023-06-19T05:57:11;94721.59;;;23.49;47.38
33191;BME280;19554;42.652;23.364;2023-06-19T05:59:37;94721.19;;;23.73;47.01
33191;BME280;19554;42.652;23.364;2023-06-19T06:02:02;94713.06;;;23.77;46.61
33191;BME280;19554;42.652;23.364;2023-06-19T06:04:28;94691.56;;;23.72;46.38
33191;BME280;19554;42.652;23.364;2023-06-19T06:06:56;94733.75;;;24.11;46.00
33191;BME280;19554;42.652;23.364;2023-06-19T06:09:21;94704.97;;;24.14;45.22
33191;BME280;19554;42.652;23.364;2023-06-19T06:11:47;94728.03;;;24.54;44.70
33191;BME280;19554;42.652;23.364;2023-06-19T06:14:12;94726.66;;;24.71;43.87
33191;BME280;19554;42.652;23.364;2023-06-19T06:16:37;94710.94;;;24.61;43.91
33191;BME280;19554;42.652;23.364;2023-06-19T06:19:03;94736.91;;;24.85;43.45
33191;BME280;19554;42.652;23.364;2023-06-19T06:21:28;94730.03;;;24.98;43.89
33191;BME280;19554;42.652;23.364;2023-06-19T06:23:53;94739.53;;;25.11;43.38
33191;BME280;19554;42.652;23.364;2023-06-19T06:26:19;94708.84;;;24.84;43.61
33191;BME280;19554;42.652;23.364;2023-06-19T06:28:45;94728.84;;;24.99;44.45
33191;BME280;19554;42.652;23.364;2023-06-19T06:31:10;94737.38;;;25.31;44.13
33191;BME280;19554;42.652;23.364;2023-06-19T06:33:36;94734.19;;;25.25;43.14
33191;BME280;19554;42.652;23.364;2023-06-19T06:36:01;94726.31;;;25.17;43.46
33191;BME280;19554;42.652;23.364;2023-06-19T06:38:26;94734.94;;;25.22;43.02
33191;BME280;19554;42.652;23.364;2023-06-19T06:40:52;94734.50;;;25.13;42.95
33191;BME280;19554;42.652;23.364;2023-06-19T06:43:17;94731.84;;;25.24;43.92
33191;BME280;19554;42.652;23.364;2023-06-19T06:45:42;94732.72;;;25.39;42.89
33191;BME280;19554;42.652;23.364;2023-06-19T06:48:08;94730.38;;;25.34;43.18
33191;BME280;19554;42.652;23.364;2023-06-19T06:50:34;94727.59;;;25.26;43.24
33191;BME280;19554;42.652;23.364;2023-06-19T06:53:00;94743.66;;;25.39;43.04
33191;BME280;19554;42.652;23.364;2023-06-19T06:55:25;94747.09;;;25.28;43.47
33191;BME280;19554;42.652;23.364;2023-06-19T06:57:51;94742.91;;;25.42;42.48
33191;BME280;19554;42.652;23.364;2023-06-19T07:00:16;94736.63;;;25.38;43.03
33191;BME280;19554;42.652;23.364;2023-06-19T07:02:43;94736.66;;;25.41;43.09
33191;BME280;19554;42.652;23.364;2023-06-19T07:05:10;94740.69;;;25.58;42.71
33191;BME280;19554;42.652;23.364;2023-06-19T07:07:36;94741.91;;;25.64;41.99
33191;BME280;19554;42.652;23.364;2023-06-19T07:10:01;94698.34;;;25.31;41.67
33191;BME280;19554;42.652;23.364;2023-06-19T07:12:27;94738.81;;;25.73;41.46
33191;BME280;19554;42.652;23.364;2023-06-19T07:14:56;94734.56;;;25.79;41.52
33191;BME280;19554;42.652;23.364;2023-06-19T07:17:22;94719.75;;;25.84;41.53
33191;BME280;19554;42.652;23.364;2023-06-19T07:19:47;94738.31;;;26.15;41.98
33191;BME280;19554;42.652;23.364;2023-06-19T07:22:13;94737.16;;;26.23;40.17
33191;BME280;19554;42.652;23.364;2023-06-19T07:24:40;94740.34;;;26.33;40.13
33191;BME280;19554;42.652;23.364;2023-06-19T07:27:05;94732.50;;;26.35;39.28
33191;BME280;19554;42.652;23.364;2023-06-19T07:29:31;94669.78;;;25.87;39.80
33191;BME280;19554;42.652;23.364;2023-06-19T07:31:57;94747.38;;;26.37;40.49
33191;BME280;19554;42.652;23.364;2023-06-19T07:34:23;94748.94;;;26.42;38.97
33191;BME280;19554;42.652;23.364;2023-06-19T07:36:48;94705.09;;;26.20;39.37
33191;BME280;19554;42.652;23.364;2023-06-19T07:39:14;94738.78;;;26.42;39.37
33191;BME280;19554;42.652;23.364;2023-06-19T07:41:39;94722.03;;;26.51;39.50
33191;BME280;19554;42.652;23.364;2023-06-19T07:44:05;94746.75;;;26.80;38.51
33191;BME280;19554;42.652;23.364;2023-06-19T07:46:30;94724.00;;;26.58;37.83
33191;BME280;19554;42.652;23.364;2023-06-19T07:48:56;94746.72;;;26.73;37.71
33191;BME280;19554;42.652;23.364;2023-06-19T07:51:21;94743.63;;;26.78;38.36
33191;BME280;19554;42.652;23.364;2023-06-19T07:53:47;94733.47;;;26.89;38.48
33191;BME280;19554;42.652;23.364;2023-06-19T07:56:12;94732.69;;;26.92;37.60
33191;BME280;19554;42.652;23.364;2023-06-19T07:58:37;94749.13;;;27.10;38.27
33191;BME280;19554;42.652;23.364;2023-06-19T08:01:03;94723.28;;;26.82;38.01
33191;BME280;19554;42.652;23.364;2023-06-19T08:03:28;94747.16;;;26.89;37.10
33191;BME280;19554;42.652;23.364;2023-06-19T08:05:55;94743.25;;;26.90;38.73
33191;BME280;19554;42.652;23.364;2023-06-19T08:08:20;94745.59;;;26.95;37.70
33191;BME280;19554;42.652;23.364;2023-06-19T08:10:46;94733.47;;;26.85;37.52
33191;BME280;19554;42.652;23.364;2023-06-19T08:13:11;94742.88;;;27.09;37.79
33191;BME280;19554;42.652;23.364;2023-06-19T08:15:37;94749.94;;;27.21;36.61
33191;BME280;19554;42.652;23.364;2023-06-19T08:18:02;94742.91;;;27.16;36.25
33191;BME280;19554;42.652;23.364;2023-06-19T08:20:28;94737.84;;;27.26;37.54
33191;BME280;19554;42.652;23.364;2023-06-19T08:22:53;94737.41;;;27.45;35.70
33191;BME280;19554;42.652;23.364;2023-06-19T08:25:19;94713.94;;;27.30;34.19
33191;BME280;19554;42.652;23.364;2023-06-19T08:27:44;94682.19;;;26.93;35.44
33191;BME280;19554;42.652;23.364;2023-06-19T08:30:10;94746.06;;;27.26;35.90
33191;BME280;19554;42.652;23.364;2023-06-19T08:32:36;94722.91;;;27.05;36.00
33191;BME280;19554;42.652;23.364;2023-06-19T08:35:02;94702.16;;;26.97;34.93
33191;BME280;19554;42.652;23.364;2023-06-19T08:37:28;94739.78;;;27.32;34.47
33191;BME280;19554;42.652;23.364;2023-06-19T08:39:54;94702.94;;;26.90;34.47
33191;BME280;19554;42.652;23.364;2023-06-19T08:42:21;94746.81;;;27.12;35.69
33191;BME280;19554;42.652;23.364;2023-06-19T08:44:48;94733.09;;;27.01;34.01
33191;BME280;19554;42.652;23.364;2023-06-19T08:47:13;94745.22;;;27.11;33.21
33191;BME280;19554;42.652;23.364;2023-06-19T08:49:39;94752.31;;;27.15;32.24
33191;BME280;19554;42.652;23.364;2023-06-19T08:52:04;94740.94;;;27.13;33.05
33191;BME280;19554;42.652;23.364;2023-06-19T08:54:30;94728.00;;;27.10;33.73
33191;BME280;19554;42.652;23.364;2023-06-19T08:57:00;94739.78;;;27.29;33.55
33191;BME280;19554;42.652;23.364;2023-06-19T08:59:25;94708.81;;;27.07;34.07
33191;BME280;19554;42.652;23.364;2023-06-19T09:01:53;94731.16;;;27.34;33.74
33191;BME280;19554;42.652;23.364;2023-06-19T09:04:21;94743.72;;;27.42;32.98
33191;BME280;19554;42.652;23.364;2023-06-19T09:09:17;94749.16;;;27.13;33.25
33191;BME280;19554;42.652;23.364;2023-06-19T09:12:01;94749.16;;;27.28;34.09
33191;BME280;19554;42.652;23.364;2023-06-19T09:14:33;94742.91;;;27.20;33.31
33191;BME280;19554;42.652;23.364;2023-06-19T09:17:01;94742.91;;;27.20;32.78
33191;BME280;19554;42.652;23.364;2023-06-19T09:19:27;94707.63;;;26.97;32.95
33191;BME280;19554;42.652;23.364;2023-06-19T09:21:52;94734.31;;;27.29;33.28
33191;BME280;19554;42.652;23.364;2023-06-19T09:24:17;94749.94;;;27.17;32.36
33191;BME280;19554;42.652;23.364;2023-06-19T09:26:43;94735.03;;;26.97;33.02
33191;BME280;19554;42.652;23.364;2023-06-19T09:29:13;94739.72;;;27.07;33.40
33191;BME280;19554;42.652;23.364;2023-06-19T09:31:41;94697.47;;;27.01;33.59
33191;BME280;19554;42.652;23.364;2023-06-19T09:34:07;94725.69;;;27.12;32.55
33191;BME280;19554;42.652;23.364;2023-06-19T09:36:33;94736.63;;;27.09;32.58
33191;BME280;19554;42.652;23.364;2023-06-19T09:39:00;94737.41;;;27.02;33.24
33191;BME280;19554;42.652;23.364;2023-06-19T09:41:29;94679.47;;;26.86;31.53
33191;BME280;19554;42.652;23.364;2023-06-19T09:43:55;94741.34;;;27.26;31.11
33191;BME280;19554;42.652;23.364;2023-06-19T09:46:26;94735.09;;;27.19;31.82
33191;BME280;19554;42.652;23.364;2023-06-19T09:48:54;94724.06;;;26.90;31.75
33191;BME280;19554;42.652;23.364;2023-06-19T09:51:26;94726.44;;;26.99;32.99
33191;BME280;19554;42.652;23.364;2023-06-19T09:53:53;94682.97;;;26.68;32.79
33191;BME280;19554;42.652;23.364;2023-06-19T09:56:19;94726.41;;;26.81;31.33
33191;BME280;19554;42.652;23.364;2023-06-19T09:58:48;94722.50;;;26.78;31.74
33191;BME280;19554;42.652;23.364;2023-06-19T10:01:15;94728.72;;;26.57;32.25
33191;BME280;19554;42.652;23.364;2023-06-19T10:03:43;94679.28;;;26.21;32.87
33191;BME280;19554;42.652;23.364;2023-06-19T10:06:14;94701.28;;;26.46;32.73
33191;BME280;19554;42.652;23.364;2023-06-19T10:08:42;94725.59;;;26.77;32.18
33191;BME280;19554;42.652;23.364;2023-06-19T10:11:09;94702.13;;;26.65;33.01
33191;BME280;19554;42.652;23.364;2023-06-19T10:13:37;94699.81;;;26.78;32.23
33191;BME280;19554;42.652;23.364;2023-06-19T10:16:04;94710.75;;;26.78;32.60
33191;BME280;19554;42.652;23.364;2023-06-19T10:18:31;94713.88;;;26.90;31.77
33191;BME280;19554;42.652;23.364;2023-06-19T10:20:57;94717.81;;;27.00;31.74
33191;BME280;19554;42.652;23.364;2023-06-19T10:23:24;94699.81;;;26.99;28.90
33191;BME280;19554;42.652;23.364;2023-06-19T10:25:58;94691.19;;;26.83;30.62
33191;BME280;19554;42.652;23.364;2023-06-19T10:28:25;94695.91;;;27.04;30.90
33191;BME280;19554;42.652;23.364;2023-06-19T10:30:54;94689.63;;;27.10;30.27
33191;BME280;19554;42.652;23.364;2023-06-19T10:33:21;94684.56;;;26.98;31.54
33191;BME280;19554;42.652;23.364;2023-06-19T10:35:46;94695.13;;;27.03;31.37
33191;BME280;19554;42.652;23.364;2023-06-19T10:38:15;94690.41;;;26.93;31.50
33191;BME280;19554;42.652;23.364;2023-06-19T10:40:40;94641.88;;;26.58;31.55
33191;BME280;19554;42.652;23.364;2023-06-19T10:43:06;94704.50;;;26.81;32.35
33191;BME280;19554;42.652;23.364;2023-06-19T10:45:32;94704.09;;;26.86;31.97
33191;BME280;19554;42.652;23.364;2023-06-19T10:48:00;94702.16;;;26.86;32.62
33191;BME280;19554;42.652;23.364;2023-06-19T10:50:28;94645.78;;;26.50;31.81
33191;BME280;19554;42.652;23.364;2023-06-19T10:52:53;94701.38;;;26.86;32.46
33191;BME280;19554;42.652;23.364;2023-06-19T10:55:21;94694.31;;;26.78;32.88
33191;BME280;19554;42.652;23.364;2023-06-19T10:57:48;94695.50;;;26.87;33.08
33191;BME280;19554;42.652;23.364;2023-06-19T11:00:31;94690.81;;;26.74;31.95
33191;BME280;19554;42.652;23.364;2023-06-19T11:02:57;94683.38;;;26.74;32.75
33191;BME280;19554;42.652;23.364;2023-06-19T11:05:24;94686.09;;;26.67;32.59
33191;BME280;19554;42.652;23.364;2023-06-19T11:07:59;94666.53;;;26.61;33.34
33191;BME280;19554;42.652;23.364;2023-06-19T11:10:27;94693.13;;;26.64;32.51
33191;BME280;19554;42.652;23.364;2023-06-19T11:12:57;94685.69;;;26.61;33.01
33191;BME280;19554;42.652;23.364;2023-06-19T11:15:33;94688.03;;;26.66;33.46
33191;BME280;19554;42.652;23.364;2023-06-19T11:18:00;94678.66;;;26.67;32.75
33191;BME280;19554;42.652;23.364;2023-06-19T11:20:26;94675.50;;;26.62;33.78
33191;BME280;19554;42.652;23.364;2023-06-19T11:22:58;94679.03;;;26.55;34.79
33191;BME280;19554;42.652;23.364;2023-06-19T11:25:24;94670.03;;;26.55;35.53
33191;BME280;19554;42.652;23.364;2023-06-19T11:27:49;94679.44;;;26.75;35.22
33191;BME280;19554;42.652;23.364;2023-06-19T11:30:17;94677.13;;;26.77;35.96
33191;BME280;19554;42.652;23.364;2023-06-19T11:32:46;94670.47;;;26.85;35.92
33191;BME280;19554;42.652;23.364;2023-06-19T11:35:16;94669.25;;;26.54;35.66
33191;BME280;19554;42.652;23.364;2023-06-19T11:37:43;94663.72;;;26.33;36.84
33191;BME280;19554;42.652;23.364;2023-06-19T11:40:11;94680.16;;;26.40;36.61
33191;BME280;19554;42.652;23.364;2023-06-19T11:42:53;94661.34;;;26.38;36.74
33191;BME280;19554;42.652;23.364;2023-06-19T11:45:19;94673.88;;;26.39;36.58
33191;BME280;19554;42.652;23.364;2023-06-19T11:47:45;94653.53;;;26.37;37.16
33191;BME280;19554;42.652;23.364;2023-06-19T11:50:12;94667.69;;;26.53;37.27
33191;BME280;19554;42.652;23.364;2023-06-19T11:52:38;94662.22;;;26.50;37.16
33191;BME280;19554;42.652;23.364;2023-06-19T11:55:04;94648.53;;;26.53;38.01
33191;BME280;19554;42.652;23.364;2023-06-19T11:57:30;94663.00;;;26.64;37.68
33191;BME280;19554;42.652;23.364;2023-06-19T11:59:55;94654.38;;;26.55;38.09
33191;BME280;19554;42.652;23.364;2023-06-19T12:02:21;94658.31;;;26.58;38.15
33191;BME280;19554;42.652;23.364;2023-06-19T12:04:46;94657.53;;;26.57;37.94
33191;BME280;19554;42.652;23.364;2023-06-19T12:07:12;94655.16;;;26.59;38.01
33191;BME280;19554;42.652;23.364;2023-06-19T12:09:37;94653.59;;;26.51;37.53
33191;BME280;19554;42.652;23.364;2023-06-19T12:12:05;94655.16;;;26.59;38.18
33191;BME280;19554;42.652;23.364;2023-06-19T12:14:30;94649.31;;;26.68;36.98
33191;BME280;19554;42.652;23.364;2023-06-19T12:16:56;94654.41;;;26.73;37.15
33191;BME280;19554;42.652;23.364;2023-06-19T12:19:21;94605.84;;;26.31;38.00
33191;BME280;19554;42.652;23.364;2023-06-19T12:21:47;94653.16;;;26.42;38.54
33191;BME280;19554;42.652;23.364;2023-06-19T12:24:12;94659.84;;;26.52;38.31
33191;BME280;19554;42.652;23.364;2023-06-19T12:26:37;94652.41;;;26.49;38.26
33191;BME280;19554;42.652;23.364;2023-06-19T12:29:03;94645.69;;;26.28;38.04
33191;BME280;19554;42.652;23.364;2023-06-19T12:31:30;94652.31;;;26.20;38.55
33191;BME280;19554;42.652;23.364;2023-06-19T12:33:56;94646.88;;;26.23;38.97
33191;BME280;19554;42.652;23.364;2023-06-19T12:36:21;94597.47;;;25.81;38.75
33191;BME280;19554;42.652;23.364;2023-06-19T12:38:47;94647.22;;;26.15;38.86
33191;BME280;19554;42.652;23.364;2023-06-19T12:41:14;94648.03;;;26.15;39.47
33191;BME280;19554;42.652;23.364;2023-06-19T12:43:39;94644.91;;;26.20;38.50
33191;BME280;19554;42.652;23.364;2023-06-19T12:46:04;94639.38;;;26.06;39.03
33191;BME280;19554;42.652;23.364;2023-06-19T12:48:30;94635.13;;;26.12;39.24